sensor_id;sensor_type;location;lat;lon;timestamp;P1;durP1;ratioP1;P2;durP2;ratioP2
47289;SDS011;33197;52.524;13.444;2022-08-16T00:00:09;21.00;;;18.65;;
47289;SDS011;33197;52.524;13.444;2022-08-16T00:02:48;19.70;;;17.73;;
47289;SDS011;33197;52.524;13.444;2022-08-16T00:05:18;21.05;;;18.50;;
47289;SDS011;33197;52.524;13.444;2022-08-16T00:07:46;24.10;;;19.90;;
47289;SDS011;33197;52.524;13.444;2022-08-16T00:10:13;17.75;;;15.98;;
47289;SDS011;33197;52.524;13.444;2022-08-16T00:12:47;19.00;;;17.05;;
47289;SDS011;33197;52.524;13.444;2022-08-16T00:15:19;20.50;;;18.50;;
47289;SDS011;33197;52.524;13.444;2022-08-16T00:17:48;23.27;;;18.42;;
47289;SDS011;33197;52.524;13.444;2022-08-16T00:20:23;23.52;;;20.15;;
47289;SDS011;33197;52.524;13.444;2022-08-16T00:22:51;22.65;;;20.20;;
47289;SDS011;33197;52.524;13.444;2022-08-16T00:25:19;19.77;;;17.77;;
47289;SDS011;33197;52.524;13.444;2022-08-16T00:28:07;20.63;;;18.50;;
47289;SDS011;33197;52.524;13.444;2022-08-16T00:30:37;19.92;;;17.85;;
47289;SDS011;33197;52.524;13.444;2022-08-16T00:33:05;20.15;;;16.52;;
47289;SDS011;33197;52.524;13.444;2022-08-16T00:35:35;22.60;;;16.85;;
47289;SDS011;33197;52.524;13.444;2022-08-16T00:38:03;18.27;;;15.65;;
47289;SDS011;33197;52.524;13.444;2022-08-16T00:40:52;20.05;;;17.35;;
47289;SDS011;33197;52.524;13.444;2022-08-16T00:43:27;22.73;;;16.60;;
47289;SDS011;33197;52.524;13.444;2022-08-16T00:46:14;18.70;;;15.80;;
47289;SDS011;33197;52.524;13.444;2022-08-16T00:49:00;19.35;;;16.38;;
47289;SDS011;33197;52.524;13.444;2022-08-16T00:51:31;19.63;;;15.55;;
47289;SDS011;33197;52.524;13.444;2022-08-16T00:53:59;16.63;;;13.88;;
47289;SDS011;33197;52.524;13.444;2022-08-16T00:56:29;21.30;;;15.45;;
47289;SDS011;33197;52.524;13.444;2022-08-16T00:59:19;17.00;;;15.30;;
47289;SDS011;33197;52.524;13.444;2022-08-16T01:01:49;17.30;;;15.25;;
47289;SDS011;33197;52.524;13.444;2022-08-16T01:04:19;15.88;;;14.30;;
47289;SDS011;33197;52.524;13.444;2022-08-16T01:06:55;17.95;;;14.55;;
47289;SDS011;33197;52.524;13.444;2022-08-16T01:09:29;16.38;;;14.82;;
47289;SDS011;33197;52.524;13.444;2022-08-16T01:12:01;16.27;;;14.57;;
47289;SDS011;33197;52.524;13.444;2022-08-16T01:14:39;17.58;;;14.90;;
47289;SDS011;33197;52.524;13.444;2022-08-16T01:17:09;15.80;;;14.30;;
47289;SDS011;33197;52.524;13.444;2022-08-16T01:19:41;19.08;;;13.98;;
47289;SDS011;33197;52.524;13.444;2022-08-16T01:22:45;15.68;;;13.85;;
47289;SDS011;33197;52.524;13.444;2022-08-16T01:25:24;16.88;;;13.88;;
47289;SDS011;33197;52.524;13.444;2022-08-16T01:28:03;16.13;;;14.30;;
47289;SDS011;33197;52.524;13.444;2022-08-16T01:30:34;15.10;;;13.52;;
47289;SDS011;33197;52.524;13.444;2022-08-16T01:33:15;17.80;;;14.98;;
47289;SDS011;33197;52.524;13.444;2022-08-16T01:35:50;14.25;;;12.95;;
47289;SDS011;33197;52.524;13.444;2022-08-16T01:38:28;17.40;;;14.65;;
47289;SDS011;33197;52.524;13.444;2022-08-16T01:43:29;16.73;;;14.60;;
47289;SDS011;33197;52.524;13.444;2022-08-16T01:45:58;15.15;;;13.75;;
47289;SDS011;33197;52.524;13.444;2022-08-16T01:48:47;16.50;;;14.90;;
47289;SDS011;33197;52.524;13.444;2022-08-16T01:51:15;16.02;;;14.45;;
47289;SDS011;33197;52.524;13.444;2022-08-16T01:53:45;20.13;;;15.07;;
47289;SDS011;33197;52.524;13.444;2022-08-16T01:56:22;16.85;;;14.23;;
47289;SDS011;33197;52.524;13.444;2022-08-16T01:58:51;14.88;;;13.50;;
47289;SDS011;33197;52.524;13.444;2022-08-16T02:01:20;16.45;;;14.75;;
47289;SDS011;33197;52.524;13.444;2022-08-16T02:03:48;15.80;;;14.20;;
47289;SDS011;33197;52.524;13.444;2022-08-16T02:06:18;17.25;;;15.45;;
47289;SDS011;33197;52.524;13.444;2022-08-16T02:09:02;15.05;;;13.55;;
47289;SDS011;33197;52.524;13.444;2022-08-16T02:11:32;14.70;;;13.40;;
47289;SDS011;33197;52.524;13.444;2022-08-16T02:14:15;15.25;;;13.65;;
47289;SDS011;33197;52.524;13.444;2022-08-16T02:16:47;17.58;;;15.45;;
47289;SDS011;33197;52.524;13.444;2022-08-16T02:19:15;14.45;;;12.98;;
47289;SDS011;33197;52.524;13.444;2022-08-16T02:21:51;15.13;;;13.63;;
47289;SDS011;33197;52.524;13.444;2022-08-16T02:24:39;17.55;;;15.32;;
47289;SDS011;33197;52.524;13.444;2022-08-16T02:27:08;18.77;;;15.35;;
47289;SDS011;33197;52.524;13.444;2022-08-16T02:29:36;14.18;;;12.18;;
47289;SDS011;33197;52.524;13.444;2022-08-16T02:32:11;15.93;;;14.32;;
47289;SDS011;33197;52.524;13.444;2022-08-16T02:34:59;17.15;;;14.68;;
47289;SDS011;33197;52.524;13.444;2022-08-16T02:37:27;15.57;;;14.13;;
47289;SDS011;33197;52.524;13.444;2022-08-16T02:40:14;15.95;;;14.25;;
47289;SDS011;33197;52.524;13.444;2022-08-16T02:42:46;16.50;;;14.68;;
47289;SDS011;33197;52.524;13.444;2022-08-16T02:45:17;16.13;;;14.30;;
47289;SDS011;33197;52.524;13.444;2022-08-16T02:47:50;16.02;;;14.52;;
47289;SDS011;33197;52.524;13.444;2022-08-16T02:50:38;17.27;;;14.75;;
47289;SDS011;33197;52.524;13.444;2022-08-16T02:53:25;17.02;;;14.75;;
47289;SDS011;33197;52.524;13.444;2022-08-16T02:55:53;17.27;;;14.48;;
47289;SDS011;33197;52.524;13.444;2022-08-16T02:58:20;18.70;;;14.32;;
47289;SDS011;33197;52.524;13.444;2022-08-16T03:00:51;16.17;;;14.57;;
47289;SDS011;33197;52.524;13.444;2022-08-16T03:03:23;17.38;;;15.27;;
47289;SDS011;33197;52.524;13.444;2022-08-16T03:05:51;15.10;;;13.60;;
47289;SDS011;33197;52.524;13.444;2022-08-16T03:08:20;15.80;;;14.23;;
47289;SDS011;33197;52.524;13.444;2022-08-16T03:11:08;17.25;;;14.38;;
47289;SDS011;33197;52.524;13.444;2022-08-16T03:13:48;15.13;;;13.63;;
47289;SDS011;33197;52.524;13.444;2022-08-16T03:16:22;15.98;;;14.57;;
47289;SDS011;33197;52.524;13.444;2022-08-16T03:19:04;16.70;;;15.10;;
47289;SDS011;33197;52.524;13.444;2022-08-16T03:21:33;16.58;;;13.75;;
47289;SDS011;33197;52.524;13.444;2022-08-16T03:24:05;14.52;;;13.18;;
47289;SDS011;33197;52.524;13.444;2022-08-16T03:26:54;17.60;;;13.02;;
47289;SDS011;33197;52.524;13.444;2022-08-16T03:29:28;15.23;;;13.75;;
47289;SDS011;33197;52.524;13.444;2022-08-16T03:31:58;15.48;;;13.80;;
47289;SDS011;33197;52.524;13.444;2022-08-16T03:34:27;15.98;;;14.43;;
47289;SDS011;33197;52.524;13.444;2022-08-16T03:36:55;17.88;;;16.08;;
47289;SDS011;33197;52.524;13.444;2022-08-16T03:39:23;16.17;;;14.55;;
47289;SDS011;33197;52.524;13.444;2022-08-16T03:41:51;17.63;;;15.73;;
47289;SDS011;33197;52.524;13.444;2022-08-16T03:44:27;15.48;;;13.88;;
47289;SDS011;33197;52.524;13.444;2022-08-16T03:47:13;16.77;;;15.00;;
47289;SDS011;33197;52.524;13.444;2022-08-16T03:49:46;16.70;;;14.82;;
47289;SDS011;33197;52.524;13.444;2022-08-16T03:52:18;17.50;;;15.80;;
47289;SDS011;33197;52.524;13.444;2022-08-16T03:54:50;18.25;;;14.57;;
47289;SDS011;33197;52.524;13.444;2022-08-16T03:57:24;17.33;;;15.55;;
47289;SDS011;33197;52.524;13.444;2022-08-16T04:00:08;18.17;;;16.35;;
47289;SDS011;33197;52.524;13.444;2022-08-16T04:03:01;16.92;;;13.85;;
47289;SDS011;33197;52.524;13.444;2022-08-16T04:05:35;17.17;;;15.40;;
47289;SDS011;33197;52.524;13.444;2022-08-16T04:08:05;18.50;;;16.63;;
47289;SDS011;33197;52.524;13.444;2022-08-16T04:10:50;19.85;;;16.05;;
47289;SDS011;33197;52.524;13.444;2022-08-16T04:13:18;18.60;;;15.98;;
47289;SDS011;33197;52.524;13.444;2022-08-16T04:16:06;20.00;;;17.08;;
47289;SDS011;33197;52.524;13.444;2022-08-16T04:18:34;18.15;;;16.33;;
47289;SDS011;33197;52.524;13.444;2022-08-16T04:21:04;18.63;;;16.13;;
47289;SDS011;33197;52.524;13.444;2022-08-16T04:23:31;15.35;;;13.85;;
47289;SDS011;33197;52.524;13.444;2022-08-16T04:25:59;16.98;;;15.23;;
47289;SDS011;33197;52.524;13.444;2022-08-16T04:28:28;18.27;;;16.40;;
47289;SDS011;33197;52.524;13.444;2022-08-16T04:31:15;21.63;;;15.63;;
47289;SDS011;33197;52.524;13.444;2022-08-16T04:33:42;17.85;;;15.50;;
47289;SDS011;33197;52.524;13.444;2022-08-16T04:36:17;19.50;;;16.92;;
47289;SDS011;33197;52.524;13.444;2022-08-16T04:38:46;17.45;;;15.65;;
47289;SDS011;33197;52.524;13.444;2022-08-16T04:41:18;17.27;;;15.48;;
47289;SDS011;33197;52.524;13.444;2022-08-16T04:43:59;16.42;;;14.55;;
47289;SDS011;33197;52.524;13.444;2022-08-16T04:46:26;15.95;;;14.45;;
47289;SDS011;33197;52.524;13.444;2022-08-16T04:49:13;15.88;;;14.27;;
47289;SDS011;33197;52.524;13.444;2022-08-16T04:51:40;18.92;;;16.90;;
47289;SDS011;33197;52.524;13.444;2022-08-16T04:54:08;17.67;;;15.32;;
47289;SDS011;33197;52.524;13.444;2022-08-16T04:56:36;16.13;;;14.60;;
47289;SDS011;33197;52.524;13.444;2022-08-16T04:59:12;18.83;;;15.43;;
47289;SDS011;33197;52.524;13.444;2022-08-16T05:01:42;18.65;;;16.85;;
47289;SDS011;33197;52.524;13.444;2022-08-16T05:04:24;19.85;;;16.92;;
47289;SDS011;33197;52.524;13.444;2022-08-16T05:06:56;18.10;;;16.40;;
47289;SDS011;33197;52.524;13.444;2022-08-16T05:09:23;19.15;;;16.55;;
47289;SDS011;33197;52.524;13.444;2022-08-16T05:11:50;17.50;;;15.50;;
47289;SDS011;33197;52.524;13.444;2022-08-16T05:14:17;20.85;;;18.55;;
47289;SDS011;33197;52.524;13.444;2022-08-16T05:17:04;20.88;;;17.02;;
47289;SDS011;33197;52.524;13.444;2022-08-16T05:19:32;18.35;;;16.50;;
47289;SDS011;33197;52.524;13.444;2022-08-16T05:22:02;18.65;;;15.25;;
47289;SDS011;33197;52.524;13.444;2022-08-16T05:24:30;19.42;;;17.45;;
47289;SDS011;33197;52.524;13.444;2022-08-16T05:26:57;18.67;;;16.50;;
47289;SDS011;33197;52.524;13.444;2022-08-16T05:29:36;20.63;;;17.50;;
47289;SDS011;33197;52.524;13.444;2022-08-16T05:32:23;19.65;;;17.73;;
47289;SDS011;33197;52.524;13.444;2022-08-16T05:35:00;18.70;;;16.70;;
47289;SDS011;33197;52.524;13.444;2022-08-16T05:37:28;21.65;;;17.30;;
47289;SDS011;33197;52.524;13.444;2022-08-16T05:40:06;20.60;;;17.90;;
47289;SDS011;33197;52.524;13.444;2022-08-16T05:42:34;18.05;;;16.35;;
47289;SDS011;33197;52.524;13.444;2022-08-16T05:45:02;17.88;;;16.17;;
47289;SDS011;33197;52.524;13.444;2022-08-16T05:47:32;19.55;;;17.38;;
47289;SDS011;33197;52.524;13.444;2022-08-16T05:50:09;18.48;;;16.52;;
47289;SDS011;33197;52.524;13.444;2022-08-16T05:52:45;21.90;;;18.92;;
47289;SDS011;33197;52.524;13.444;2022-08-16T05:55:12;19.52;;;17.00;;
47289;SDS011;33197;52.524;13.444;2022-08-16T05:57:39;20.73;;;18.52;;
47289;SDS011;33197;52.524;13.444;2022-08-16T06:00:08;20.70;;;17.90;;
47289;SDS011;33197;52.524;13.444;2022-08-16T06:02:37;19.55;;;17.60;;
47289;SDS011;33197;52.524;13.444;2022-08-16T06:05:05;21.83;;;16.52;;
47289;SDS011;33197;52.524;13.444;2022-08-16T06:07:36;18.60;;;16.73;;
47289;SDS011;33197;52.524;13.444;2022-08-16T06:10:05;16.20;;;14.60;;
47289;SDS011;33197;52.524;13.444;2022-08-16T06:12:35;18.27;;;16.52;;
47289;SDS011;33197;52.524;13.444;2022-08-16T06:15:05;17.08;;;15.18;;
47289;SDS011;33197;52.524;13.444;2022-08-16T06:17:36;15.07;;;13.45;;
47289;SDS011;33197;52.524;13.444;2022-08-16T06:20:16;17.20;;;15.52;;
47289;SDS011;33197;52.524;13.444;2022-08-16T06:22:54;16.80;;;14.88;;
47289;SDS011;33197;52.524;13.444;2022-08-16T06:25:30;16.40;;;13.65;;
47289;SDS011;33197;52.524;13.444;2022-08-16T06:28:03;15.18;;;13.35;;
47289;SDS011;33197;52.524;13.444;2022-08-16T06:30:36;16.55;;;14.93;;
47289;SDS011;33197;52.524;13.444;2022-08-16T06:33:14;14.68;;;13.18;;
47289;SDS011;33197;52.524;13.444;2022-08-16T06:35:49;15.02;;;13.45;;
47289;SDS011;33197;52.524;13.444;2022-08-16T06:38:26;16.98;;;14.90;;
47289;SDS011;33197;52.524;13.444;2022-08-16T06:41:04;15.93;;;13.90;;
47289;SDS011;33197;52.524;13.444;2022-08-16T06:43:39;16.30;;;14.15;;
47289;SDS011;33197;52.524;13.444;2022-08-16T06:46:07;17.23;;;13.80;;
47289;SDS011;33197;52.524;13.444;2022-08-16T06:48:46;16.35;;;14.40;;
47289;SDS011;33197;52.524;13.444;2022-08-16T06:51:17;21.48;;;15.18;;
47289;SDS011;33197;52.524;13.444;2022-08-16T06:53:44;19.67;;;16.20;;
47289;SDS011;33197;52.524;13.444;2022-08-16T06:56:18;14.80;;;13.30;;
47289;SDS011;33197;52.524;13.444;2022-08-16T06:58:50;17.05;;;15.35;;
47289;SDS011;33197;52.524;13.444;2022-08-16T07:01:19;15.70;;;14.07;;
47289;SDS011;33197;52.524;13.444;2022-08-16T07:04:06;17.20;;;15.00;;
47289;SDS011;33197;52.524;13.444;2022-08-16T07:06:38;20.38;;;14.80;;
47289;SDS011;33197;52.524;13.444;2022-08-16T07:09:10;14.82;;;13.50;;
47289;SDS011;33197;52.524;13.444;2022-08-16T07:11:38;21.05;;;16.65;;
47289;SDS011;33197;52.524;13.444;2022-08-16T07:14:12;17.10;;;15.40;;
47289;SDS011;33197;52.524;13.444;2022-08-16T07:16:53;14.25;;;12.82;;
47289;SDS011;33197;52.524;13.444;2022-08-16T07:19:24;15.68;;;14.27;;
47289;SDS011;33197;52.524;13.444;2022-08-16T07:22:12;17.23;;;15.52;;
47289;SDS011;33197;52.524;13.444;2022-08-16T07:24:59;16.48;;;14.70;;
47289;SDS011;33197;52.524;13.444;2022-08-16T07:27:27;16.80;;;15.07;;
47289;SDS011;33197;52.524;13.444;2022-08-16T07:29:57;14.00;;;12.63;;
47289;SDS011;33197;52.524;13.444;2022-08-16T07:32:25;15.93;;;14.23;;
47289;SDS011;33197;52.524;13.444;2022-08-16T07:34:57;16.80;;;14.07;;
47289;SDS011;33197;52.524;13.444;2022-08-16T07:37:24;15.77;;;14.20;;
47289;SDS011;33197;52.524;13.444;2022-08-16T07:39:51;18.25;;;14.95;;
47289;SDS011;33197;52.524;13.444;2022-08-16T07:42:20;14.80;;;13.35;;
47289;SDS011;33197;52.524;13.444;2022-08-16T07:45:01;19.65;;;14.55;;
47289;SDS011;33197;52.524;13.444;2022-08-16T07:47:35;17.17;;;14.68;;
47289;SDS011;33197;52.524;13.444;2022-08-16T07:50:03;17.02;;;13.80;;
47289;SDS011;33197;52.524;13.444;2022-08-16T07:52:33;19.83;;;13.82;;
47289;SDS011;33197;52.524;13.444;2022-08-16T07:55:05;21.98;;;13.70;;
47289;SDS011;33197;52.524;13.444;2022-08-16T07:57:32;16.95;;;15.27;;
47289;SDS011;33197;52.524;13.444;2022-08-16T08:00:19;15.25;;;13.70;;
47289;SDS011;33197;52.524;13.444;2022-08-16T08:02:52;17.40;;;13.35;;
47289;SDS011;33197;52.524;13.444;2022-08-16T08:05:23;13.48;;;11.50;;
47289;SDS011;33197;52.524;13.444;2022-08-16T08:08:01;15.65;;;13.18;;
47289;SDS011;33197;52.524;13.444;2022-08-16T08:10:37;13.25;;;11.90;;
47289;SDS011;33197;52.524;13.444;2022-08-16T08:13:04;13.48;;;12.07;;
47289;SDS011;33197;52.524;13.444;2022-08-16T08:15:33;12.02;;;10.82;;
47289;SDS011;33197;52.524;13.444;2022-08-16T08:18:03;14.77;;;11.13;;
47289;SDS011;33197;52.524;13.444;2022-08-16T08:20:50;13.13;;;11.95;;
47289;SDS011;33197;52.524;13.444;2022-08-16T08:23:25;15.18;;;11.45;;
47289;SDS011;33197;52.524;13.444;2022-08-16T08:25:53;12.52;;;11.18;;
47289;SDS011;33197;52.524;13.444;2022-08-16T08:28:21;13.30;;;11.90;;
47289;SDS011;33197;52.524;13.444;2022-08-16T08:30:48;15.27;;;11.98;;
47289;SDS011;33197;52.524;13.444;2022-08-16T08:33:27;13.25;;;10.45;;
47289;SDS011;33197;52.524;13.444;2022-08-16T08:35:58;15.95;;;12.07;;
47289;SDS011;33197;52.524;13.444;2022-08-16T08:38:28;15.85;;;14.20;;
47289;SDS011;33197;52.524;13.444;2022-08-16T08:41:12;14.00;;;12.60;;
47289;SDS011;33197;52.524;13.444;2022-08-16T08:43:40;13.55;;;12.20;;
47289;SDS011;33197;52.524;13.444;2022-08-16T08:46:08;11.10;;;10.00;;
47289;SDS011;33197;52.524;13.444;2022-08-16T08:48:47;16.15;;;13.63;;
47289;SDS011;33197;52.524;13.444;2022-08-16T08:51:27;17.00;;;12.95;;
47289;SDS011;33197;52.524;13.444;2022-08-16T08:54:06;14.82;;;12.43;;
47289;SDS011;33197;52.524;13.444;2022-08-16T08:56:35;15.68;;;14.00;;
47289;SDS011;33197;52.524;13.444;2022-08-16T08:59:11;15.60;;;10.35;;
47289;SDS011;33197;52.524;13.444;2022-08-16T09:01:48;11.40;;;10.30;;
47289;SDS011;33197;52.524;13.444;2022-08-16T09:04:24;12.20;;;11.00;;
47289;SDS011;33197;52.524;13.444;2022-08-16T09:06:53;11.45;;;10.35;;
47289;SDS011;33197;52.524;13.444;2022-08-16T09:09:21;13.52;;;11.07;;
47289;SDS011;33197;52.524;13.444;2022-08-16T09:11:48;15.38;;;9.50;;
47289;SDS011;33197;52.524;13.444;2022-08-16T09:14:30;11.38;;;9.48;;
47289;SDS011;33197;52.524;13.444;2022-08-16T09:16:58;11.52;;;10.40;;
47289;SDS011;33197;52.524;13.444;2022-08-16T09:19:37;10.45;;;9.50;;
47289;SDS011;33197;52.524;13.444;2022-08-16T09:22:08;9.60;;;8.68;;
47289;SDS011;33197;52.524;13.444;2022-08-16T09:24:47;10.95;;;9.32;;
47289;SDS011;33197;52.524;13.444;2022-08-16T09:27:20;10.05;;;9.13;;
47289;SDS011;33197;52.524;13.444;2022-08-16T09:29:51;11.43;;;10.15;;
47289;SDS011;33197;52.524;13.444;2022-08-16T09:32:28;11.27;;;10.07;;
47289;SDS011;33197;52.524;13.444;2022-08-16T09:34:57;12.32;;;11.13;;
47289;SDS011;33197;52.524;13.444;2022-08-16T09:37:28;13.13;;;9.32;;
47289;SDS011;33197;52.524;13.444;2022-08-16T09:40:03;10.55;;;9.35;;
47289;SDS011;33197;52.524;13.444;2022-08-16T09:42:51;11.93;;;10.57;;
47289;SDS011;33197;52.524;13.444;2022-08-16T09:45:25;13.40;;;10.43;;
47289;SDS011;33197;52.524;13.444;2022-08-16T09:47:54;15.05;;;11.32;;
47289;SDS011;33197;52.524;13.444;2022-08-16T09:50:25;12.32;;;10.65;;
47289;SDS011;33197;52.524;13.444;2022-08-16T09:53:05;14.50;;;10.20;;
47289;SDS011;33197;52.524;13.444;2022-08-16T09:55:42;11.00;;;9.90;;
47289;SDS011;33197;52.524;13.444;2022-08-16T09:58:14;12.82;;;10.13;;
47289;SDS011;33197;52.524;13.444;2022-08-16T10:01:02;13.77;;;8.85;;
47289;SDS011;33197;52.524;13.444;2022-08-16T10:03:30;12.55;;;9.95;;
47289;SDS011;33197;52.524;13.444;2022-08-16T10:05:57;10.38;;;9.38;;
47289;SDS011;33197;52.524;13.444;2022-08-16T10:08:25;17.60;;;9.57;;
47289;SDS011;33197;52.524;13.444;2022-08-16T10:10:53;10.88;;;9.27;;
47289;SDS011;33197;52.524;13.444;2022-08-16T10:13:56;9.85;;;8.80;;
47289;SDS011;33197;52.524;13.444;2022-08-16T10:16:23;12.75;;;9.43;;
47289;SDS011;33197;52.524;13.444;2022-08-16T10:18:51;10.60;;;8.80;;
47289;SDS011;33197;52.524;13.444;2022-08-16T10:21:32;10.80;;;8.23;;
47289;SDS011;33197;52.524;13.444;2022-08-16T10:24:00;11.35;;;8.68;;
47289;SDS011;33197;52.524;13.444;2022-08-16T10:26:28;11.20;;;9.02;;
47289;SDS011;33197;52.524;13.444;2022-08-16T10:29:16;9.73;;;8.38;;
47289;SDS011;33197;52.524;13.444;2022-08-16T10:31:46;8.98;;;6.88;;
47289;SDS011;33197;52.524;13.444;2022-08-16T10:34:20;8.57;;;7.03;;
47289;SDS011;33197;52.524;13.444;2022-08-16T10:36:59;11.15;;;7.10;;
47289;SDS011;33197;52.524;13.444;2022-08-16T10:39:27;11.52;;;8.18;;
47289;SDS011;33197;52.524;13.444;2022-08-16T10:42:06;11.27;;;7.93;;
47289;SDS011;33197;52.524;13.444;2022-08-16T10:44:34;10.05;;;7.03;;
47289;SDS011;33197;52.524;13.444;2022-08-16T10:47:01;13.27;;;7.82;;
47289;SDS011;33197;52.524;13.444;2022-08-16T10:49:30;12.50;;;7.70;;
47289;SDS011;33197;52.524;13.444;2022-08-16T10:51:57;9.50;;;6.88;;
47289;SDS011;33197;52.524;13.444;2022-08-16T10:54:43;7.22;;;6.50;;
47289;SDS011;33197;52.524;13.444;2022-08-16T10:57:30;7.55;;;6.55;;
47289;SDS011;33197;52.524;13.444;2022-08-16T10:59:58;9.90;;;6.18;;
47289;SDS011;33197;52.524;13.444;2022-08-16T11:02:27;8.13;;;6.63;;
47289;SDS011;33197;52.524;13.444;2022-08-16T11:05:15;6.95;;;6.07;;
47289;SDS011;33197;52.524;13.444;2022-08-16T11:07:44;8.65;;;5.75;;
47289;SDS011;33197;52.524;13.444;2022-08-16T11:10:26;7.18;;;6.07;;
47289;SDS011;33197;52.524;13.444;2022-08-16T11:13:16;10.60;;;5.90;;
47289;SDS011;33197;52.524;13.444;2022-08-16T11:16:08;10.27;;;7.78;;
47289;SDS011;33197;52.524;13.444;2022-08-16T11:18:53;9.38;;;7.25;;
47289;SDS011;33197;52.524;13.444;2022-08-16T11:21:36;8.32;;;6.90;;
47289;SDS011;33197;52.524;13.444;2022-08-16T11:24:23;7.80;;;6.95;;
47289;SDS011;33197;52.524;13.444;2022-08-16T11:27:11;8.65;;;6.65;;
47289;SDS011;33197;52.524;13.444;2022-08-16T11:29:50;7.78;;;6.82;;
47289;SDS011;33197;52.524;13.444;2022-08-16T11:32:21;7.57;;;6.47;;
47289;SDS011;33197;52.524;13.444;2022-08-16T11:34:59;8.82;;;6.90;;
47289;SDS011;33197;52.524;13.444;2022-08-16T11:37:37;13.32;;;7.50;;
47289;SDS011;33197;52.524;13.444;2022-08-16T11:40:25;8.02;;;7.00;;
47289;SDS011;33197;52.524;13.444;2022-08-16T11:42:59;9.50;;;7.63;;
47289;SDS011;33197;52.524;13.444;2022-08-16T11:45:30;8.60;;;7.80;;
47289;SDS011;33197;52.524;13.444;2022-08-16T11:48:01;8.55;;;6.47;;
47289;SDS011;33197;52.524;13.444;2022-08-16T11:50:31;7.10;;;6.40;;
47289;SDS011;33197;52.524;13.444;2022-08-16T11:53:00;8.73;;;6.57;;
47289;SDS011;33197;52.524;13.444;2022-08-16T11:55:30;7.40;;;6.65;;
47289;SDS011;33197;52.524;13.444;2022-08-16T11:57:58;8.57;;;6.65;;
47289;SDS011;33197;52.524;13.444;2022-08-16T12:00:27;7.38;;;6.07;;
47289;SDS011;33197;52.524;13.444;2022-08-16T12:03:15;7.65;;;6.47;;
47289;SDS011;33197;52.524;13.444;2022-08-16T12:05:43;10.98;;;7.18;;
47289;SDS011;33197;52.524;13.444;2022-08-16T12:08:11;9.35;;;5.90;;
47289;SDS011;33197;52.524;13.444;2022-08-16T12:10:43;8.10;;;5.97;;
47289;SDS011;33197;52.524;13.444;2022-08-16T12:13:12;9.10;;;6.35;;
47289;SDS011;33197;52.524;13.444;2022-08-16T12:15:40;9.68;;;6.10;;
47289;SDS011;33197;52.524;13.444;2022-08-16T12:18:09;8.90;;;6.47;;
47289;SDS011;33197;52.524;13.444;2022-08-16T12:20:46;8.60;;;6.55;;
47289;SDS011;33197;52.524;13.444;2022-08-16T12:23:14;11.75;;;6.78;;
47289;SDS011;33197;52.524;13.444;2022-08-16T12:25:43;7.78;;;5.63;;
47289;SDS011;33197;52.524;13.444;2022-08-16T12:28:11;8.80;;;5.90;;
47289;SDS011;33197;52.524;13.444;2022-08-16T12:30:39;10.00;;;6.00;;
47289;SDS011;33197;52.524;13.444;2022-08-16T12:33:15;5.90;;;5.25;;
47289;SDS011;33197;52.524;13.444;2022-08-16T12:35:51;8.93;;;5.82;;
47289;SDS011;33197;52.524;13.444;2022-08-16T12:38:18;7.75;;;5.80;;
47289;SDS011;33197;52.524;13.444;2022-08-16T12:41:05;6.43;;;5.75;;
47289;SDS011;33197;52.524;13.444;2022-08-16T12:43:34;6.43;;;5.30;;
47289;SDS011;33197;52.524;13.444;2022-08-16T12:46:07;7.20;;;6.10;;
47289;SDS011;33197;52.524;13.444;2022-08-16T12:48:35;5.55;;;5.05;;
47289;SDS011;33197;52.524;13.444;2022-08-16T12:51:24;7.18;;;5.28;;
47289;SDS011;33197;52.524;13.444;2022-08-16T12:54:14;5.53;;;4.95;;
47289;SDS011;33197;52.524;13.444;2022-08-16T12:56:41;8.90;;;4.95;;
47289;SDS011;33197;52.524;13.444;2022-08-16T12:59:10;8.40;;;5.22;;
47289;SDS011;33197;52.524;13.444;2022-08-16T13:01:45;5.63;;;4.68;;
47289;SDS011;33197;52.524;13.444;2022-08-16T13:04:16;6.90;;;4.90;;
47289;SDS011;33197;52.524;13.444;2022-08-16T13:06:47;6.88;;;5.00;;
47289;SDS011;33197;52.524;13.444;2022-08-16T13:09:18;11.52;;;5.22;;
47289;SDS011;33197;52.524;13.444;2022-08-16T13:14:27;10.93;;;5.37;;
47289;SDS011;33197;52.524;13.444;2022-08-16T13:17:01;5.93;;;4.93;;
47289;SDS011;33197;52.524;13.444;2022-08-16T13:19:34;7.22;;;5.47;;
47289;SDS011;33197;52.524;13.444;2022-08-16T13:22:21;7.57;;;5.85;;
47289;SDS011;33197;52.524;13.444;2022-08-16T13:24:50;8.43;;;5.25;;
47289;SDS011;33197;52.524;13.444;2022-08-16T13:27:18;8.57;;;4.80;;
47289;SDS011;33197;52.524;13.444;2022-08-16T13:30:00;6.63;;;4.82;;
47289;SDS011;33197;52.524;13.444;2022-08-16T13:32:37;5.65;;;4.90;;
47289;SDS011;33197;52.524;13.444;2022-08-16T13:35:06;10.68;;;5.75;;
47289;SDS011;33197;52.524;13.444;2022-08-16T13:37:37;7.47;;;5.50;;
47289;SDS011;33197;52.524;13.444;2022-08-16T13:40:07;7.82;;;5.38;;
47289;SDS011;33197;52.524;13.444;2022-08-16T13:42:46;8.18;;;5.10;;
47289;SDS011;33197;52.524;13.444;2022-08-16T13:45:15;9.93;;;5.60;;
47289;SDS011;33197;52.524;13.444;2022-08-16T13:47:42;10.15;;;5.53;;
47289;SDS011;33197;52.524;13.444;2022-08-16T13:50:10;6.30;;;4.60;;
47289;SDS011;33197;52.524;13.444;2022-08-16T13:52:38;6.90;;;5.07;;
47289;SDS011;33197;52.524;13.444;2022-08-16T13:55:07;4.70;;;4.15;;
47289;SDS011;33197;52.524;13.444;2022-08-16T13:57:43;8.27;;;4.88;;
47289;SDS011;33197;52.524;13.444;2022-08-16T14:00:31;7.10;;;5.10;;
47289;SDS011;33197;52.524;13.444;2022-08-16T14:02:58;7.57;;;5.30;;
47289;SDS011;33197;52.524;13.444;2022-08-16T14:05:25;9.65;;;5.22;;
47289;SDS011;33197;52.524;13.444;2022-08-16T14:07:53;6.47;;;5.45;;
47289;SDS011;33197;52.524;13.444;2022-08-16T14:10:20;6.05;;;5.43;;
47289;SDS011;33197;52.524;13.444;2022-08-16T14:12:47;9.65;;;4.75;;
47289;SDS011;33197;52.524;13.444;2022-08-16T14:15:14;6.55;;;4.70;;
47289;SDS011;33197;52.524;13.444;2022-08-16T14:17:42;6.97;;;4.95;;
47289;SDS011;33197;52.524;13.444;2022-08-16T14:20:29;10.07;;;5.07;;
47289;SDS011;33197;52.524;13.444;2022-08-16T14:22:56;7.18;;;5.57;;
47289;SDS011;33197;52.524;13.444;2022-08-16T14:25:24;6.78;;;6.07;;
47289;SDS011;33197;52.524;13.444;2022-08-16T14:27:52;8.38;;;5.88;;
47289;SDS011;33197;52.524;13.444;2022-08-16T14:30:21;10.23;;;5.55;;
47289;SDS011;33197;52.524;13.444;2022-08-16T14:32:49;5.40;;;4.90;;
47289;SDS011;33197;52.524;13.444;2022-08-16T14:35:19;6.38;;;5.78;;
47289;SDS011;33197;52.524;13.444;2022-08-16T14:38:10;5.78;;;5.20;;
47289;SDS011;33197;52.524;13.444;2022-08-16T14:40:44;6.70;;;4.88;;
47289;SDS011;33197;52.524;13.444;2022-08-16T14:43:20;5.55;;;4.80;;
47289;SDS011;33197;52.524;13.444;2022-08-16T14:45:48;5.85;;;4.18;;
47289;SDS011;33197;52.524;13.444;2022-08-16T14:48:17;6.90;;;4.03;;
47289;SDS011;33197;52.524;13.444;2022-08-16T14:50:52;6.20;;;4.38;;
47289;SDS011;33197;52.524;13.444;2022-08-16T14:53:19;5.97;;;4.35;;
47289;SDS011;33197;52.524;13.444;2022-08-16T14:55:46;5.80;;;4.70;;
47289;SDS011;33197;52.524;13.444;2022-08-16T14:58:14;5.25;;;4.72;;